createdAt,value
2019-04-01T00:00:57.623Z,33.67
2019-04-01T00:03:26.985Z,31.83
2019-04-01T00:05:56.748Z,31.17
2019-04-01T00:08:26.084Z,33.43
2019-04-01T00:10:55.438Z,33.43
2019-04-01T00:13:24.798Z,33.57
2019-04-01T00:15:54.173Z,32.80
2019-04-01T00:18:23.532Z,33.30
2019-04-01T00:20:53.318Z,32.10
2019-04-01T00:23:22.986Z,34.17
2019-04-01T00:25:52.329Z,35.83
2019-04-01T00:28:22.167Z,34.80
2019-04-01T00:30:51.492Z,33.30
2019-04-01T00:33:21.327Z,37.67
2019-04-01T00:35:50.967Z,34.03
2019-04-01T00:38:20.369Z,35.33
2019-04-01T00:40:49.756Z,33.67
2019-04-01T00:43:41.177Z,34.60
2019-04-01T00:46:12.280Z,35.13
2019-04-01T00:48:41.630Z,35.97
2019-04-01T00:51:10.975Z,34.37
2019-04-01T00:53:40.305Z,33.67
2019-04-01T00:56:09.645Z,36.70
2019-04-01T00:58:40.317Z,37.40
2019-04-01T01:01:09.825Z,34.67
2019-04-01T01:03:39.188Z,35.10
2019-04-01T01:06:08.556Z,36.63
2019-04-01T01:08:37.891Z,36.57
2019-04-01T01:11:07.236Z,37.33
2019-04-01T01:13:36.575Z,38.87
2019-04-01T01:16:05.914Z,38.20
2019-04-01T01:18:35.304Z,37.50
2019-04-01T01:21:04.616Z,37.63
2019-04-01T01:23:33.944Z,37.47
2019-04-01T01:26:03.297Z,39.03
2019-04-01T01:28:32.768Z,37.70
2019-04-01T01:31:02.129Z,35.50
2019-04-01T01:33:31.528Z,37.07
2019-04-01T01:36:00.926Z,34.23
2019-04-01T01:38:30.448Z,38.33
2019-04-01T01:40:59.846Z,37.43
2019-04-01T01:43:29.512Z,42.40
2019-04-01T01:45:58.831Z,46.97
2019-04-01T01:48:28.144Z,46.87
2019-04-01T01:50:57.502Z,44.83
2019-04-01T01:53:26.861Z,45.77
2019-04-01T01:55:56.198Z,40.30
2019-04-01T01:58:25.538Z,28.97
2019-04-01T02:00:57.762Z,32.47
2019-04-01T02:03:27.103Z,45.93
2019-04-01T02:05:57.676Z,43.00
2019-04-01T02:08:27.053Z,43.43
2019-04-01T02:10:56.423Z,40.63
2019-04-01T02:13:26.005Z,43.20
2019-04-01T02:15:55.356Z,42.17
2019-04-01T02:18:24.724Z,41.13
2019-04-01T02:20:54.322Z,38.80
2019-04-01T02:23:23.730Z,39.50
2019-04-01T02:25:53.052Z,35.90
2019-04-01T02:28:22.624Z,36.03
2019-04-01T02:30:51.968Z,33.87
2019-04-01T02:33:21.344Z,33.70
2019-04-01T02:35:50.700Z,31.47
2019-04-01T02:38:20.448Z,33.87
2019-04-01T02:40:49.797Z,31.27
2019-04-01T02:43:19.146Z,33.93
2019-04-01T02:45:48.479Z,34.47
2019-04-01T02:48:17.844Z,34.13
2019-04-01T02:50:47.156Z,33.13
2019-04-01T02:53:16.529Z,35.97
2019-04-01T02:55:45.889Z,34.27
2019-04-01T02:58:15.235Z,33.77
2019-04-01T03:00:44.639Z,35.93
2019-04-01T03:03:14.012Z,34.93
2019-04-01T03:05:43.419Z,37.50
2019-04-01T03:08:12.777Z,29.80
2019-04-01T03:10:42.148Z,36.00
2019-04-01T03:13:11.585Z,36.33
2019-04-01T03:15:41.143Z,39.13
2019-04-01T03:18:10.582Z,37.27
2019-04-01T03:20:40.995Z,61.10
2019-04-01T03:23:10.346Z,35.53
2019-04-01T03:25:39.663Z,35.70
2019-04-01T03:28:09.027Z,33.97
2019-04-01T03:30:38.395Z,35.17
2019-04-01T03:33:07.960Z,34.57
2019-04-01T03:35:37.274Z,36.67
2019-04-01T03:38:06.604Z,34.87
2019-04-01T03:40:36.199Z,33.30
2019-04-01T03:43:05.633Z,35.10
2019-04-01T03:45:34.992Z,36.77
2019-04-01T03:48:04.331Z,40.40
2019-04-01T03:50:33.673Z,39.47
2019-04-01T03:53:03.045Z,38.90
2019-04-01T03:55:32.452Z,42.30
2019-04-01T03:58:01.806Z,41.83
2019-04-01T04:00:31.186Z,36.57
2019-04-01T04:03:00.685Z,26.00
2019-04-01T04:05:30.085Z,18.63
2019-04-01T04:07:59.459Z,15.40
2019-04-01T04:10:28.856Z,16.93
2019-04-01T04:12:58.197Z,16.83
2019-04-01T04:15:27.589Z,15.90
2019-04-01T04:17:56.963Z,16.77
2019-04-01T04:20:26.333Z,16.43
2019-04-01T04:22:55.759Z,15.83
2019-04-01T04:25:25.105Z,15.73
2019-04-01T04:27:54.459Z,14.87
2019-04-01T04:30:23.788Z,17.23
2019-04-01T04:32:53.129Z,17.03
2019-04-01T04:35:22.565Z,16.30
2019-04-01T04:37:52.092Z,16.63
2019-04-01T04:40:21.520Z,15.97
2019-04-01T04:42:51.132Z,17.60
2019-04-01T04:45:20.523Z,17.20
2019-04-01T04:47:49.869Z,17.87
2019-04-01T04:50:19.299Z,18.20
2019-04-01T04:52:48.680Z,17.27
2019-04-01T04:55:18.053Z,18.13
2019-04-01T04:57:47.624Z,17.17
2019-04-01T05:00:17.134Z,18.70
2019-04-01T05:02:46.500Z,17.17
2019-04-01T05:05:15.975Z,16.83
2019-04-01T05:07:45.418Z,17.27
2019-04-01T05:10:14.829Z,16.90
2019-04-01T05:12:44.209Z,17.13
2019-04-01T05:15:13.652Z,16.63
2019-04-01T05:17:43.022Z,19.00
2019-04-01T05:20:12.397Z,19.73
2019-04-01T05:22:42.180Z,18.43
2019-04-01T05:25:11.586Z,18.80
2019-04-01T05:27:42.609Z,19.73
2019-04-01T05:30:12.493Z,19.57
2019-04-01T05:32:43.258Z,19.47
2019-04-01T05:35:13.111Z,19.23
2019-04-01T05:37:42.886Z,18.73
2019-04-01T05:40:12.476Z,19.40
2019-04-01T05:42:41.846Z,19.37
2019-04-01T05:45:11.230Z,19.77
2019-04-01T05:47:46.500Z,19.73
2019-04-01T05:50:16.030Z,19.73
2019-04-01T05:52:45.383Z,19.80
2019-04-01T05:55:14.768Z,19.90
2019-04-01T05:57:44.262Z,21.13
2019-04-01T06:00:21.381Z,19.97
2019-04-01T06:02:51.855Z,22.23
2019-04-01T06:05:21.389Z,21.20
2019-04-01T06:07:51.200Z,21.60
2019-04-01T06:10:20.718Z,24.50
2019-04-01T06:12:50.065Z,24.53
2019-04-01T06:15:19.426Z,24.47
2019-04-01T06:17:48.982Z,23.07
2019-04-01T06:20:18.361Z,24.50
2019-04-01T06:22:47.759Z,26.13
2019-04-01T06:25:17.937Z,23.43
2019-04-01T06:27:47.282Z,22.83
2019-04-01T06:30:17.214Z,23.50
2019-04-01T06:32:46.578Z,23.10
2019-04-01T06:35:15.935Z,25.20
2019-04-01T06:37:45.451Z,23.93
2019-04-01T06:40:15.369Z,22.67
2019-04-01T06:42:44.713Z,23.73
2019-04-01T06:45:14.534Z,26.20
2019-04-01T06:47:44.095Z,25.27
2019-04-01T06:50:13.723Z,23.87
2019-04-01T06:52:43.215Z,23.73
2019-04-01T06:55:12.659Z,24.90
2019-04-01T06:57:42.035Z,24.53
2019-04-01T07:00:11.616Z,25.47
2019-04-01T07:02:40.973Z,25.33
2019-04-01T07:05:12.574Z,26.67
2019-04-01T07:07:41.708Z,25.40
2019-04-01T07:10:11.489Z,27.63
2019-04-01T07:12:41.844Z,33.90
2019-04-01T07:15:11.420Z,28.77
2019-04-01T07:17:42.531Z,28.60
2019-04-01T07:20:12.569Z,26.70
2019-04-01T07:22:41.956Z,33.37
2019-04-01T07:25:11.873Z,31.13
2019-04-01T07:27:41.330Z,28.00
2019-04-01T07:30:11.112Z,29.40
2019-04-01T07:32:40.570Z,27.50
2019-04-01T07:35:10.315Z,30.10
2019-04-01T07:37:39.723Z,28.53
2019-04-01T07:40:09.663Z,30.50
2019-04-01T07:42:39.036Z,27.90
2019-04-01T07:45:09.391Z,28.43
2019-04-01T07:47:38.758Z,28.57
2019-04-01T07:50:12.045Z,27.20
2019-04-01T07:52:39.553Z,29.37
2019-04-01T07:55:09.173Z,28.90
2019-04-01T07:57:38.870Z,28.67
2019-04-01T08:00:08.426Z,27.42
2019-04-01T08:02:38.378Z,28.38
2019-04-01T08:05:08.622Z,28.35
2019-04-01T08:07:38.414Z,26.55
2019-04-01T08:10:08.410Z,28.50
2019-04-01T08:12:37.786Z,27.10
2019-04-01T08:15:07.897Z,25.92
2019-04-01T08:17:37.386Z,26.87
2019-04-01T08:20:07.377Z,28.00
2019-04-01T08:22:37.142Z,27.62
2019-04-01T08:25:07.122Z,27.80
2019-04-01T08:27:36.640Z,28.40
2019-04-01T08:30:06.787Z,26.80
2019-04-01T08:32:37.565Z,27.35
2019-04-01T08:35:07.313Z,25.72
2019-04-01T08:37:40.253Z,26.68
2019-04-01T08:40:08.839Z,26.45
2019-04-01T08:42:38.410Z,26.27
2019-04-01T08:45:08.171Z,26.80
2019-04-01T08:47:37.928Z,23.30
2019-04-01T08:50:08.255Z,23.12
2019-04-01T08:52:37.852Z,21.20
2019-04-01T08:55:07.609Z,21.95
2019-04-01T08:57:37.581Z,22.58
2019-04-01T09:00:07.752Z,22.90
2019-04-01T09:02:37.203Z,21.00
2019-04-01T09:05:06.776Z,19.17
2019-04-01T09:07:36.339Z,19.55
2019-04-01T09:10:06.889Z,20.17
2019-04-01T09:12:36.961Z,20.32
2019-04-01T09:15:07.642Z,19.12
2019-04-01T09:17:40.214Z,18.90
2019-04-01T09:20:13.443Z,18.95
2019-04-01T09:22:42.867Z,18.17
2019-04-01T09:25:12.343Z,20.02
2019-04-01T09:27:41.765Z,19.23
2019-04-01T09:30:11.655Z,18.27
2019-04-01T09:32:41.402Z,18.48
2019-04-01T09:35:11.008Z,18.05
2019-04-01T09:37:40.456Z,16.87
2019-04-01T09:40:10.563Z,16.82
2019-04-01T09:42:39.998Z,16.90
2019-04-01T09:45:09.764Z,16.97
2019-04-01T09:47:39.247Z,16.50
2019-04-01T09:50:09.389Z,15.80
2019-04-01T09:52:38.749Z,13.98
2019-04-01T09:55:08.233Z,11.83
2019-04-01T09:57:37.625Z,10.85
2019-04-01T10:00:09.225Z,11.28
2019-04-01T10:02:38.599Z,11.20
2019-04-01T10:05:08.458Z,11.55
2019-04-01T10:07:37.936Z,11.20
2019-04-01T10:10:07.749Z,12.75
2019-04-01T10:12:37.181Z,12.13
2019-04-01T10:15:08.454Z,11.45
2019-04-01T10:17:37.848Z,11.43
2019-04-01T10:20:08.250Z,11.53
2019-04-01T10:22:37.674Z,10.82
2019-04-01T10:25:08.693Z,11.43
2019-04-01T10:27:39.074Z,10.55
2019-04-01T10:30:09.567Z,11.08
2019-04-01T10:32:39.286Z,11.38
2019-04-01T10:35:09.458Z,12.25
2019-04-01T10:37:38.865Z,12.50
2019-04-01T10:40:08.728Z,11.03
2019-04-01T10:42:38.168Z,11.93
2019-04-01T10:45:08.872Z,11.68
2019-04-01T10:47:38.609Z,10.72
2019-04-01T10:50:08.590Z,12.50
2019-04-01T10:52:38.122Z,14.00
2019-04-01T10:55:07.796Z,10.98
2019-04-01T10:57:37.295Z,11.80
2019-04-01T11:00:09.244Z,10.20
2019-04-01T11:02:40.548Z,9.48
2019-04-01T11:05:10.323Z,10.03
2019-04-01T11:07:39.930Z,10.10
2019-04-01T11:10:11.669Z,9.98
2019-04-01T11:12:41.596Z,10.00
2019-04-01T11:15:15.333Z,9.90
2019-04-01T11:17:43.848Z,9.78
2019-04-01T11:20:14.324Z,10.28
2019-04-01T11:22:43.685Z,12.75
2019-04-01T11:25:13.283Z,10.45
2019-04-01T11:27:42.694Z,10.13
2019-04-01T11:30:13.865Z,10.38
2019-04-01T11:32:43.602Z,10.90
2019-04-01T11:35:13.205Z,10.48
2019-04-01T11:37:42.635Z,10.40
2019-04-01T11:40:12.929Z,9.78
2019-04-01T11:42:42.455Z,11.12
2019-04-01T11:45:12.901Z,11.30
2019-04-01T11:47:42.676Z,10.95
2019-04-01T11:50:12.481Z,13.85
2019-04-01T11:52:41.936Z,11.20
2019-04-01T11:55:13.184Z,12.33
2019-04-01T11:57:43.177Z,13.28
2019-04-01T12:00:17.219Z,11.93
2019-04-01T12:02:48.119Z,11.12
2019-04-01T12:05:17.972Z,11.38
2019-04-01T12:07:47.438Z,13.60
2019-04-01T12:10:16.996Z,10.82
2019-04-01T12:12:46.723Z,10.53
2019-04-01T12:15:16.257Z,11.10
2019-04-01T12:17:45.800Z,9.93
2019-04-01T12:20:15.194Z,11.43
2019-04-01T12:22:45.749Z,10.70
2019-04-01T12:25:15.841Z,11.45
2019-04-01T12:27:45.628Z,10.40
2019-04-01T12:30:16.383Z,10.95
2019-04-01T12:32:46.206Z,10.63
2019-04-01T12:35:15.538Z,11.03
2019-04-01T12:37:45.850Z,10.95
2019-04-01T12:40:15.523Z,11.30
2019-04-01T12:42:46.416Z,10.48
2019-04-01T12:45:16.006Z,10.68
2019-04-01T12:47:46.214Z,11.28
2019-04-01T12:50:15.828Z,11.40
2019-04-01T12:52:45.247Z,11.35
2019-04-01T12:55:15.527Z,10.48
2019-04-01T12:57:48.186Z,10.40
2019-04-01T13:00:18.055Z,10.30
2019-04-01T13:02:47.468Z,9.90
2019-04-01T13:05:17.676Z,9.40
2019-04-01T13:07:47.008Z,9.98
2019-04-01T13:10:16.742Z,9.88
2019-04-01T13:12:46.764Z,10.07
2019-04-01T13:15:16.457Z,10.83
2019-04-01T13:17:45.908Z,10.63
2019-04-01T13:20:15.778Z,10.60
2019-04-01T13:22:45.555Z,9.50
2019-04-01T13:25:15.429Z,9.13
2019-04-01T13:27:44.958Z,9.00
2019-04-01T13:30:14.669Z,8.00
2019-04-01T13:32:44.094Z,8.43
2019-04-01T13:35:13.522Z,9.90
2019-04-01T13:37:43.143Z,8.60
2019-04-01T13:40:13.053Z,10.80
2019-04-01T13:42:43.472Z,9.30
2019-04-01T13:45:13.136Z,8.90
2019-04-01T13:47:42.830Z,8.67
2019-04-01T13:50:16.170Z,8.90
2019-04-01T13:52:43.977Z,9.13
2019-04-01T13:55:13.911Z,9.87
2019-04-01T13:57:43.463Z,9.80
2019-04-01T14:00:14.776Z,9.50
2019-04-01T14:02:44.482Z,9.30
2019-04-01T14:05:14.047Z,8.97
2019-04-01T14:07:43.683Z,8.93
2019-04-01T14:10:13.428Z,8.43
2019-04-01T14:12:43.302Z,9.07
2019-04-01T14:15:12.943Z,8.57
2019-04-01T14:17:42.792Z,9.20
2019-04-01T14:20:12.615Z,10.90
2019-04-01T14:22:44.365Z,12.03
2019-04-01T14:25:14.018Z,9.40
2019-04-01T14:27:43.614Z,9.50
2019-04-01T14:30:13.183Z,9.70
2019-04-01T14:32:42.535Z,9.53
2019-04-01T14:35:11.929Z,8.87
2019-04-01T14:37:41.324Z,10.33
2019-04-01T14:40:11.397Z,10.20
2019-04-01T14:42:40.808Z,10.20
2019-04-01T14:45:10.571Z,10.53
2019-04-01T14:47:56.115Z,10.77
2019-04-01T14:50:11.944Z,10.63
2019-04-01T14:52:41.677Z,11.17
2019-04-01T14:55:11.284Z,10.93
2019-04-01T14:57:40.673Z,11.77
2019-04-01T15:00:12.783Z,10.97
2019-04-01T15:02:42.286Z,10.17
2019-04-01T15:05:12.311Z,11.37
2019-04-01T15:07:41.746Z,10.90
2019-04-01T15:10:11.470Z,10.97
2019-04-01T15:12:40.865Z,10.73
2019-04-01T15:15:10.603Z,11.13
2019-04-01T15:17:40.074Z,10.90
2019-04-01T15:20:09.582Z,11.00
2019-04-01T15:22:39.149Z,17.13
2019-04-01T15:25:08.705Z,12.60
2019-04-01T15:27:38.097Z,13.27
2019-04-01T15:30:07.979Z,14.70
2019-04-01T15:32:37.318Z,14.80
2019-04-01T15:35:09.389Z,12.63
2019-04-01T15:37:38.833Z,11.80
2019-04-01T15:40:09.025Z,11.50
2019-04-01T15:42:38.428Z,13.17
2019-04-01T15:45:07.989Z,10.87
2019-04-01T15:47:38.719Z,13.13
2019-04-01T15:50:09.403Z,11.30
2019-04-01T15:52:39.056Z,12.97
2019-04-01T15:55:09.068Z,11.93
2019-04-01T15:57:38.433Z,12.30
2019-04-01T16:00:09.382Z,10.73
2019-04-01T16:02:38.754Z,12.13
2019-04-01T16:05:08.859Z,11.50
2019-04-01T16:07:41.566Z,13.13
2019-04-01T16:10:09.587Z,11.80
2019-04-01T16:12:38.954Z,11.37
2019-04-01T16:15:09.275Z,12.10
2019-04-01T16:17:39.032Z,13.83
2019-04-01T16:20:09.167Z,13.33
2019-04-01T16:22:38.601Z,12.03
2019-04-01T16:25:11.249Z,11.77
2019-04-01T16:27:42.942Z,12.60
2019-04-01T16:30:12.382Z,13.07
2019-04-01T16:32:41.864Z,11.83
2019-04-01T16:35:11.539Z,11.47
2019-04-01T16:37:40.926Z,15.40
2019-04-01T16:40:10.755Z,14.10
2019-04-01T16:42:40.132Z,11.70
2019-04-01T16:45:10.342Z,12.40
2019-04-01T16:47:40.072Z,12.00
2019-04-01T16:50:11.200Z,10.63
2019-04-01T16:52:40.544Z,10.00
2019-04-01T16:55:11.974Z,10.37
2019-04-01T16:57:41.378Z,12.00
2019-04-01T17:00:14.478Z,12.37
2019-04-01T17:02:42.964Z,11.23
2019-04-01T17:05:12.591Z,10.93
2019-04-01T17:07:41.927Z,10.57
2019-04-01T17:10:16.617Z,11.33
2019-04-01T17:12:47.846Z,10.17
2019-04-01T17:15:17.265Z,10.17
2019-04-01T17:17:47.058Z,10.97
2019-04-01T17:20:17.393Z,10.40
2019-04-01T17:22:47.838Z,11.07
2019-04-01T17:25:17.245Z,10.40
2019-04-01T17:27:46.689Z,13.50
2019-04-01T17:30:16.652Z,12.43
2019-04-01T17:32:46.595Z,12.13
2019-04-01T17:35:16.206Z,12.97
2019-04-01T17:37:45.666Z,14.37
2019-04-01T17:40:17.195Z,14.20
2019-04-01T17:42:47.166Z,13.90
2019-04-01T17:45:36.002Z,16.07
2019-04-01T17:48:06.281Z,15.73
2019-04-01T17:50:35.753Z,15.57
2019-04-01T17:53:07.988Z,29.00
2019-04-01T17:55:37.431Z,99.27
2019-04-01T17:58:07.543Z,17.20
2019-04-01T18:00:41.991Z,18.07
2019-04-01T18:03:12.005Z,16.53
2019-04-01T18:05:41.470Z,17.33
2019-04-01T18:08:10.841Z,17.90
2019-04-01T18:10:40.501Z,19.27
2019-04-01T18:13:09.907Z,21.23
2019-04-01T18:15:39.437Z,18.87
2019-04-01T18:18:10.250Z,19.43
2019-04-01T18:20:40.445Z,18.30
2019-04-01T18:23:10.274Z,17.57
2019-04-01T18:25:39.631Z,15.37
2019-04-01T18:28:09.092Z,15.23
2019-04-01T18:30:38.454Z,12.43
2019-04-01T18:33:07.877Z,14.93
2019-04-01T18:35:37.254Z,15.57
2019-04-01T18:38:06.585Z,14.70
2019-04-01T18:40:38.126Z,15.53
2019-04-01T18:43:07.536Z,16.27
2019-04-01T18:45:36.928Z,18.10
2019-04-01T18:48:06.377Z,18.67
2019-04-01T18:50:35.788Z,18.40
2019-04-01T18:53:05.235Z,23.20
2019-04-01T18:55:34.878Z,20.13
2019-04-01T18:58:04.281Z,23.17
2019-04-01T19:00:33.729Z,24.30
2019-04-01T19:03:03.128Z,26.50
2019-04-01T19:05:33.115Z,28.30
2019-04-01T19:08:04.202Z,26.77
2019-04-01T19:10:33.901Z,28.43
2019-04-01T19:13:06.562Z,29.10
2019-04-01T19:15:35.727Z,32.90
2019-04-01T19:18:05.516Z,27.77
2019-04-01T19:20:35.155Z,21.50
2019-04-01T19:23:05.188Z,22.47
2019-04-01T19:25:34.605Z,23.13
2019-04-01T19:28:04.011Z,23.10
2019-04-01T19:30:33.437Z,20.17
2019-04-01T19:33:06.361Z,20.47
2019-04-01T19:35:34.113Z,20.27
2019-04-01T19:38:06.897Z,16.67
2019-04-01T19:40:34.865Z,17.50
2019-04-01T19:43:04.327Z,19.83
2019-04-01T19:45:33.855Z,18.47
2019-04-01T19:48:03.440Z,18.10
2019-04-01T19:50:33.439Z,19.70
2019-04-01T19:53:03.090Z,22.70
2019-04-01T19:55:34.128Z,22.43
2019-04-01T19:58:05.220Z,22.10
2019-04-01T20:00:34.892Z,21.70
2019-04-01T20:03:04.301Z,20.13
2019-04-01T20:05:33.654Z,18.23
2019-04-01T20:08:03.034Z,16.43
2019-04-01T20:10:32.411Z,17.33
2019-04-01T20:13:01.998Z,17.33
2019-04-01T20:15:31.412Z,14.90
2019-04-01T20:18:00.821Z,17.73
2019-04-01T20:20:31.235Z,17.30
2019-04-01T20:23:00.957Z,16.97
2019-04-01T20:25:31.694Z,17.63
2019-04-01T20:28:01.096Z,16.90
2019-04-01T20:30:30.497Z,16.60
2019-04-01T20:33:00.316Z,16.43
2019-04-01T20:35:29.887Z,14.60
2019-04-01T20:37:59.266Z,15.90
2019-04-01T20:40:28.747Z,15.83
2019-04-01T20:42:58.440Z,15.33
2019-04-01T20:45:27.840Z,15.90
2019-04-01T20:47:58.257Z,14.53
2019-04-01T20:50:29.387Z,16.67
2019-04-01T20:52:58.799Z,16.97
2019-04-01T20:55:28.161Z,16.00
2019-04-01T20:57:57.558Z,14.93
2019-04-01T21:00:26.983Z,15.30
2019-04-01T21:02:56.858Z,16.47
2019-04-01T21:05:26.348Z,16.77
2019-04-01T21:07:55.747Z,13.60
2019-04-01T21:10:25.067Z,11.50
2019-04-01T21:12:54.501Z,13.93
2019-04-01T21:15:23.948Z,12.30
2019-04-01T21:17:53.272Z,9.40
2019-04-01T21:20:22.659Z,9.67
2019-04-01T21:22:52.041Z,12.80
2019-04-01T21:25:21.477Z,15.50
2019-04-01T21:27:50.864Z,15.77
2019-04-01T21:30:20.578Z,15.60
2019-04-01T21:32:49.905Z,16.07
2019-04-01T21:35:19.253Z,18.77
2019-04-01T21:37:48.642Z,19.60
2019-04-01T21:40:18.381Z,22.17
2019-04-01T21:42:47.790Z,22.73
2019-04-01T21:45:18.165Z,22.47
2019-04-01T21:47:47.540Z,22.97
2019-04-01T21:50:16.899Z,20.50
2019-04-01T21:52:46.320Z,19.47
2019-04-01T21:55:16.230Z,20.73
2019-04-01T21:57:45.601Z,20.17
2019-04-01T22:00:19.926Z,17.90
2019-04-01T22:02:49.454Z,17.30
2019-04-01T22:05:18.907Z,17.97
2019-04-01T22:07:48.790Z,17.17
2019-04-01T22:10:18.305Z,16.27
2019-04-01T22:12:47.673Z,17.20
2019-04-01T22:15:18.773Z,17.70
2019-04-01T22:17:48.347Z,17.90
2019-04-01T22:20:17.831Z,18.00
2019-04-01T22:22:47.250Z,19.00
2019-04-01T22:25:16.689Z,18.73
2019-04-01T22:27:46.805Z,17.80
2019-04-01T22:30:17.309Z,18.37
2019-04-01T22:32:47.268Z,17.07
2019-04-01T22:35:16.638Z,15.13
2019-04-01T22:37:46.059Z,14.57
2019-04-01T22:40:15.478Z,15.13
2019-04-01T22:42:46.517Z,13.77
2019-04-01T22:45:15.925Z,14.10
2019-04-01T22:47:45.835Z,14.30
2019-04-01T22:50:15.373Z,14.90
2019-04-01T22:52:44.779Z,13.73
2019-04-01T22:55:14.197Z,17.00
2019-04-01T22:57:43.526Z,22.90
2019-04-01T23:00:13.243Z,17.93
2019-04-01T23:02:43.087Z,21.50
2019-04-01T23:05:12.800Z,19.73
2019-04-01T23:07:43.457Z,17.23
2019-04-01T23:10:13.228Z,16.80
2019-04-01T23:12:42.847Z,18.30
2019-04-01T23:15:12.581Z,17.90
2019-04-01T23:17:42.080Z,19.37
2019-04-01T23:20:12.857Z,18.70
2019-04-01T23:22:42.276Z,19.27
2019-04-01T23:25:11.767Z,20.03
2019-04-01T23:27:41.417Z,18.73
2019-04-01T23:30:11.433Z,18.00
2019-04-01T23:32:42.001Z,17.07
2019-04-01T23:35:12.515Z,13.03
2019-04-01T23:37:42.285Z,12.90
2019-04-01T23:40:11.817Z,12.47
2019-04-01T23:42:41.193Z,12.90
2019-04-01T23:45:10.627Z,14.40
2019-04-01T23:47:40.000Z,15.77
2019-04-01T23:50:09.953Z,16.30
2019-04-01T23:52:40.273Z,16.23
2019-04-01T23:55:10.456Z,16.63
2019-04-01T23:57:40.727Z,16.73
